Terminal Aerodrome Forecast
Issued by NWS

Home | Current Version | Previous Version | Text Only | Print | Product List | Glossary On
Versions: 1 2 3 4 5 6 7 8 9 10 11 12 13 14
000
FTUS44 KLZK 170209 AAA
TAFADF
TAF AMD
KADF 170209Z 1702/1724 16005KT P6SM -RA BKN070 OVC100
     FM170400 16004KT 5SM -SHRA BR BKN025 OVC040
     FM170600 VRB03KT 4SM -RA OVC008
     FM171000 VRB03KT 5SM BR OVC012
     FM171800 VRB04KT P6SM BKN015 OVC035=

USA.gov is the U.S. government's official web portal to all federal, state and local government web resources and services.